Time;durP1;ratioP1;P1;durP2;ratioP2;P2;SDS_P1;SDS_P2;PMS_P1;PMS_P2;Temp;Humidity;BMP_temperature;BMP_pressure;BME280_temperature;BME280_humidity;BME280_pressure;Samples;Min_cycle;Max_cycle;Signal;HPM_P1;HPM_P2
2021/10/07 00:00:48;;;;;;;0.57;0.57;;;9.90;99.90;;;;;;4414197;32;20535;-70
2021/10/07 00:03:29;;;;;;;1.77;0.60;;;9.80;99.90;;;;;;4414701;32;20137;-69
2021/10/07 00:05:54;;;;;;;0.68;0.68;;;9.90;99.90;;;;;;4415834;32;20100;-70
2021/10/07 00:08:20;;;;;;;1.37;0.40;;;9.90;99.90;;;;;;4414714;32;20522;-70
2021/10/07 00:10:46;;;;;;;0.50;0.50;;;9.80;99.90;;;;;;4414136;32;20066;-70
2021/10/07 00:13:12;;;;;;;0.50;0.50;;;9.70;99.90;;;;;;4414978;32;20058;-70
2021/10/07 00:16:01;;;;;;;0.40;0.40;;;9.70;99.90;;;;;;4415217;32;20582;-69
2021/10/07 00:19:11;;;;;;;0.40;0.40;;;9.80;99.90;;;;;;4415407;32;20515;-70
2021/10/07 00:21:56;;;;;;;1.80;1.30;;;9.60;99.90;;;;;;4413553;32;20664;-69
2021/10/07 00:24:22;;;;;;;0.40;0.40;;;9.60;99.90;;;;;;4403813;32;20181;-70
2021/10/07 00:26:48;;;;;;;0.30;0.30;;;9.60;99.90;;;;;;4414120;32;20065;-70
2021/10/07 00:29:42;;;;;;;46.70;0.80;;;9.50;99.90;;;;;;4415204;32;20073;-69
2021/10/07 00:32:13;;;;;;;3.47;0.57;;;9.60;99.90;;;;;;4417345;32;20057;-70
2021/10/07 00:39:25;;;;;;;0.30;0.30;;;9.50;99.90;;;;;;4416092;32;19950;-69
2021/10/07 00:41:05;;;;;;;1.65;0.88;;;9.50;99.90;;;;;;4415525;32;20409;-69
2021/10/07 00:43:48;;;;;;;0.45;0.45;;;9.50;99.90;;;;;;4414182;32;20589;-70
2021/10/07 00:46:46;;;;;;;;;;;;;;;;;;;;;
2021/10/07 00:50:33;;;;;;;0.60;0.60;;;9.40;99.90;;;;;;4412646;32;20074;-68
2021/10/07 00:53:20;;;;;;;0.45;0.45;;;9.40;99.90;;;;;;4340139;33;20504;-69
2021/10/07 00:56:19;;;;;;;0.75;0.70;;;9.40;99.90;;;;;;4353458;33;20134;-70
2021/10/07 01:01:52;;;;;;;7.70;1.05;;;9.40;99.90;;;;;;4310143;33;20072;-69
2021/10/07 01:04:18;;;;;;;0.95;0.70;;;9.30;99.90;;;;;;4350390;33;20124;-69
2021/10/07 01:06:49;;;;;;;0.52;0.52;;;9.30;99.90;;;;;;4369176;32;20490;-69
2021/10/07 01:09:22;;;;;;;0.70;0.70;;;9.30;99.90;;;;;;4415965;32;20506;-70
2021/10/07 01:11:48;;;;;;;1.87;0.50;;;9.30;99.90;;;;;;4416417;32;20440;-69
2021/10/07 01:14:17;;;;;;;1.05;0.70;;;9.10;99.90;;;;;;4416426;32;20116;-69
2021/10/07 01:16:42;;;;;;;0.30;0.30;;;9.10;99.90;;;;;;4416561;32;20090;-69
2021/10/07 01:19:08;;;;;;;0.40;0.40;;;9.10;99.90;;;;;;4416318;32;20062;-69
2021/10/07 01:21:33;;;;;;;0.40;0.40;;;9.20;99.90;;;;;;4416001;32;20129;-69
2021/10/07 01:23:59;;;;;;;0.98;0.65;;;9.20;99.90;;;;;;4415983;32;20061;-69
2021/10/07 01:26:26;;;;;;;0.50;0.47;;;9.30;99.90;;;;;;4416126;32;20156;-75
2021/10/07 01:28:58;;;;;;;0.40;0.40;;;9.30;99.90;;;;;;4416646;32;20073;-69
2021/10/07 01:31:23;;;;;;;0.70;0.50;;;9.30;99.90;;;;;;4416914;32;20066;-71
2021/10/07 01:33:49;;;;;;;0.22;0.22;;;9.40;99.90;;;;;;4416791;32;20116;-69
2021/10/07 01:36:15;;;;;;;0.50;0.50;;;9.30;99.90;;;;;;4415792;32;20073;-71
2021/10/07 01:38:40;;;;;;;0.57;0.57;;;9.30;99.90;;;;;;4416015;32;20121;-71
2021/10/07 01:41:07;;;;;;;0.30;0.30;;;9.30;99.90;;;;;;4415457;32;20083;-71
2021/10/07 01:43:32;;;;;;;0.45;0.45;;;9.20;99.90;;;;;;4415206;32;20081;-71
2021/10/07 01:45:58;;;;;;;0.70;0.70;;;9.20;99.90;;;;;;4416905;32;20058;-71
2021/10/07 01:48:23;;;;;;;0.40;0.40;;;9.20;99.90;;;;;;4416252;32;20100;-71
2021/10/07 01:50:49;;;;;;;0.50;0.50;;;9.20;99.90;;;;;;4416951;32;20069;-72
2021/10/07 01:53:14;;;;;;;31.58;0.80;;;9.20;99.90;;;;;;4415564;32;20092;-71
2021/10/07 01:55:40;;;;;;;4.50;0.80;;;9.20;99.90;;;;;;4415681;32;20086;-71
2021/10/07 01:58:05;;;;;;;0.32;0.32;;;9.20;99.90;;;;;;4414030;32;20077;-71
2021/10/07 02:00:31;;;;;;;1.25;0.77;;;9.30;99.90;;;;;;4415465;32;20069;-71
2021/10/07 02:02:56;;;;;;;0.75;0.75;;;9.40;99.90;;;;;;4415460;32;20061;-71
2021/10/07 02:05:22;;;;;;;1.50;0.82;;;9.30;99.90;;;;;;4415523;32;20575;-71
2021/10/07 02:07:48;;;;;;;0.50;0.50;;;9.30;99.90;;;;;;4415476;32;20070;-71
2021/10/07 02:10:15;;;;;;;0.50;0.50;;;9.30;99.90;;;;;;4415648;32;20065;-72
2021/10/07 02:12:46;;;;;;;0.47;0.47;;;9.30;99.90;;;;;;4416458;32;20077;-71
2021/10/07 02:15:11;;;;;;;;;;;9.40;99.90;;;;;;4416018;32;20098;-73
2021/10/07 02:17:37;;;;;;;0.30;0.30;;;9.40;99.90;;;;;;4415460;32;19945;-72
2021/10/07 02:20:06;;;;;;;0.57;0.57;;;9.20;99.90;;;;;;4415479;32;20572;-71
2021/10/07 02:22:32;;;;;;;0.20;0.20;;;9.20;99.90;;;;;;4415865;32;20390;-71
2021/10/07 02:24:57;;;;;;;0.57;0.47;;;9.10;99.90;;;;;;4415151;32;20054;-71
2021/10/07 02:27:23;;;;;;;1.95;0.98;;;9.00;99.90;;;;;;4417168;32;20058;-71
2021/10/07 02:29:48;;;;;;;0.45;0.45;;;9.00;99.90;;;;;;4417891;32;20391;-71
2021/10/07 02:32:14;;;;;;;0.65;0.50;;;8.90;99.90;;;;;;4417163;32;20085;-73
2021/10/07 02:34:39;;;;;;;0.37;0.37;;;8.90;99.90;;;;;;4416421;32;20070;-72
2021/10/07 02:37:05;;;;;;;0.50;0.50;;;9.00;99.90;;;;;;4416587;32;20070;-71
2021/10/07 02:39:31;;;;;;;0.68;0.68;;;9.00;99.90;;;;;;4416147;32;20124;-71
2021/10/07 02:41:56;;;;;;;0.98;0.68;;;9.10;99.90;;;;;;4417602;32;20117;-72
2021/10/07 02:44:22;;;;;;;0.30;0.30;;;9.00;99.90;;;;;;4417001;32;20077;-71
2021/10/07 02:46:47;;;;;;;0.30;0.30;;;9.00;99.90;;;;;;4418694;32;20096;-71
2021/10/07 02:49:16;;;;;;;3.05;1.25;;;8.80;99.90;;;;;;4416051;32;20177;-70
2021/10/07 02:51:42;;;;;;;0.50;0.50;;;8.70;99.90;;;;;;4415629;32;20197;-71
2021/10/07 02:54:07;;;;;;;0.30;0.30;;;8.60;99.90;;;;;;4416440;32;20070;-70
2021/10/07 02:56:33;;;;;;;5.22;0.65;;;8.60;99.90;;;;;;4417440;32;20125;-71
2021/10/07 02:58:58;;;;;;;1.87;0.30;;;8.70;99.90;;;;;;4416034;32;20086;-71
2021/10/07 03:01:26;;;;;;;0.40;0.40;;;8.70;99.90;;;;;;4415385;32;20069;-71
2021/10/07 03:03:51;;;;;;;0.60;0.60;;;8.70;99.90;;;;;;4416508;32;20449;-71
2021/10/07 03:06:43;;;;;;;3.33;1.48;;;8.60;99.90;;;;;;4416367;32;20480;-71
2021/10/07 03:09:24;;;;;;;0.70;0.50;;;8.60;99.90;;;;;;4403089;32;20097;-70
2021/10/07 03:11:50;;;;;;;;;;;8.60;99.90;;;;;;4416488;32;20101;-71
2021/10/07 03:14:27;;;;;;;0.30;0.30;;;8.60;99.90;;;;;;4415316;32;20024;-72
2021/10/07 03:16:52;;;;;;;3.47;0.65;;;8.60;99.90;;;;;;4415652;32;20439;-71
2021/10/07 03:19:49;;;;;;;1.48;0.40;;;8.70;99.90;;;;;;4415526;32;20066;-71
2021/10/07 03:22:27;;;;;;;0.50;0.50;;;8.60;99.90;;;;;;4413704;32;20061;-71
2021/10/07 03:24:56;;;;;;;0.40;0.40;;;8.60;99.90;;;;;;4414809;32;20578;-71
2021/10/07 03:27:28;;;;;;;0.32;0.30;;;8.50;99.90;;;;;;4414681;32;20070;-71
2021/10/07 03:30:01;;;;;;;6.07;0.62;;;8.40;99.90;;;;;;4413733;32;20077;-71
2021/10/07 03:32:53;;;;;;;0.52;0.52;;;8.50;99.90;;;;;;4414974;32;20425;-70
2021/10/07 03:35:22;;;;;;;0.30;0.30;;;8.50;99.90;;;;;;4414785;32;20136;-72
2021/10/07 03:38:00;;;;;;;0.37;0.37;;;8.50;99.90;;;;;;4404439;32;20054;-71
2021/10/07 03:40:26;;;;;;;0.25;0.25;;;8.50;99.90;;;;;;4401325;32;20422;-70
2021/10/07 03:43:12;;;;;;;0.55;0.47;;;8.60;99.90;;;;;;4400740;32;20078;-71
2021/10/07 03:45:40;;;;;;;1.00;0.68;;;8.50;99.90;;;;;;4400737;32;20091;-71
2021/10/07 03:48:08;;;;;;;0.20;0.20;;;8.50;99.90;;;;;;4401894;32;20535;-71
2021/10/07 03:54:21;;;;;;;0.50;0.50;;;8.60;99.90;;;;;;4354015;32;20115;-71
2021/10/07 03:56:47;;;;;;;0.40;0.40;;;8.50;99.90;;;;;;4352999;33;20524;-71
2021/10/07 03:59:33;;;;;;;8.77;1.10;;;8.40;99.90;;;;;;4381427;32;20124;-71
2021/10/07 04:02:01;;;;;;;0.55;0.52;;;8.50;99.90;;;;;;4400142;32;20129;-70
2021/10/07 04:04:26;;;;;;;0.40;0.40;;;8.40;99.90;;;;;;4401399;32;20134;-71
2021/10/07 04:07:13;;;;;;;3.03;1.30;;;8.40;99.90;;;;;;4402634;32;20058;-71
2021/10/07 04:10:11;;;;;;;;;;;;;;;;;;;;;
2021/10/07 04:12:47;;;;;;;0.30;0.30;;;8.20;99.90;;;;;;4389720;32;20062;-71
2021/10/07 04:15:15;;;;;;;0.47;0.47;;;8.20;99.90;;;;;;4402454;32;20523;-71
2021/10/07 04:18:32;;;;;;;0.62;0.50;;;8.20;99.90;;;;;;4402760;32;20083;-70
2021/10/07 04:23:56;;;;;;;0.40;0.40;;;8.30;99.90;;;;;;4402205;32;20128;-70
2021/10/07 04:26:32;;;;;;;1.12;0.52;;;8.30;99.90;;;;;;4400328;32;20062;-71
2021/10/07 04:28:58;;;;;;;0.30;0.30;;;8.30;99.90;;;;;;4413121;32;20070;-70
2021/10/07 04:31:56;;;;;;;0.60;0.60;;;8.40;99.90;;;;;;4417805;32;20082;-70
2021/10/07 04:34:25;;;;;;;0.30;0.30;;;8.30;99.90;;;;;;4414612;32;20070;-70
2021/10/07 04:36:56;;;;;;;0.25;0.25;;;8.20;99.90;;;;;;4412002;32;20511;-70
2021/10/07 04:39:57;;;;;;;0.57;0.57;;;8.20;99.90;;;;;;4403874;32;20512;-71
2021/10/07 04:42:23;;;;;;;0.35;0.35;;;8.20;99.90;;;;;;4417057;32;20116;-70
2021/10/07 04:45:21;;;;;;;1.35;1.05;;;8.20;99.90;;;;;;4416924;32;20101;-70
2021/10/07 04:48:13;;;;;;;0.30;0.30;;;8.20;99.90;;;;;;4397418;32;20463;-70
2021/10/07 04:50:39;;;;;;;0.40;0.40;;;8.10;99.90;;;;;;4417289;32;20074;-69
2021/10/07 04:53:12;;;;;;;0.50;0.50;;;8.10;99.90;;;;;;4413065;32;20165;-70
2021/10/07 04:55:38;;;;;;;0.75;0.50;;;8.10;99.90;;;;;;4407048;32;20077;-70
2021/10/07 04:58:04;;;;;;;0.20;0.20;;;8.10;99.90;;;;;;4401536;32;20134;-71
2021/10/07 05:00:29;;;;;;;0.98;0.62;;;8.20;99.90;;;;;;4406290;32;20343;-71
2021/10/07 05:02:56;;;;;;;0.40;0.40;;;8.20;99.90;;;;;;4404681;32;20086;-71
2021/10/07 05:05:22;;;;;;;0.52;0.35;;;8.20;99.90;;;;;;4405462;32;20143;-71
2021/10/07 05:07:47;;;;;;;0.70;0.70;;;8.10;99.90;;;;;;4403321;32;20450;-69
2021/10/07 05:10:15;;;;;;;0.50;0.50;;;8.10;99.90;;;;;;4414513;32;20062;-71
2021/10/07 05:12:53;;;;;;;;;;;;;;;;;;;;;
2021/10/07 05:15:29;;;;;;;0.85;0.85;;;8.10;99.90;;;;;;4410834;32;20166;-70
2021/10/07 05:17:59;;;;;;;2.65;0.62;;;8.10;99.90;;;;;;4395013;32;20597;-71
2021/10/07 05:20:30;;;;;;;2.10;1.12;;;8.00;99.90;;;;;;4401007;32;20062;-69
2021/10/07 05:22:56;;;;;;;0.40;0.40;;;8.00;99.90;;;;;;4400435;32;20125;-68
2021/10/07 05:25:22;;;;;;;6.25;0.65;;;8.10;99.90;;;;;;4408086;32;20086;-70
2021/10/07 05:27:47;;;;;;;5.15;1.15;;;8.10;99.90;;;;;;4393690;32;20073;-69
2021/10/07 05:30:33;;;;;;;0.50;0.50;;;8.00;99.90;;;;;;4396803;32;20236;-71
2021/10/07 05:32:59;;;;;;;0.65;0.52;;;8.00;99.90;;;;;;4384921;32;20065;-69
2021/10/07 05:35:28;;;;;;;0.35;0.35;;;8.10;99.90;;;;;;4398564;32;20118;-70
2021/10/07 05:37:56;;;;;;;0.82;0.82;;;8.10;99.90;;;;;;4396446;32;20094;-65
2021/10/07 05:40:22;;;;;;;0.98;0.88;;;8.10;99.90;;;;;;4401197;32;20153;-68
2021/10/07 05:42:47;;;;;;;0.40;0.40;;;8.20;99.90;;;;;;4405249;32;20146;-68
2021/10/07 05:45:14;;;;;;;7.75;2.08;;;8.20;99.90;;;;;;4403776;32;20647;-69
2021/10/07 05:47:41;;;;;;;0.52;0.52;;;8.20;99.90;;;;;;4405304;32;20543;-68
2021/10/07 05:50:12;;;;;;;5.10;0.57;;;8.10;99.90;;;;;;4403611;32;20078;-71
2021/10/07 05:52:37;;;;;;;1.30;0.73;;;8.20;99.90;;;;;;4395474;32;20276;-67
2021/10/07 05:55:04;;;;;;;2.55;1.12;;;8.20;99.90;;;;;;4393779;32;20073;-69
2021/10/07 05:57:30;;;;;;;0.73;0.68;;;8.30;99.90;;;;;;4397488;32;20085;-69
2021/10/07 05:59:56;;;;;;;0.35;0.35;;;8.30;99.90;;;;;;4393275;32;20124;-66
2021/10/07 06:02:21;;;;;;;0.40;0.40;;;8.30;99.90;;;;;;4390368;32;20524;-68
2021/10/07 06:04:47;;;;;;;0.52;0.50;;;8.20;99.90;;;;;;4397747;32;20097;-68
2021/10/07 06:07:12;;;;;;;0.55;0.55;;;8.30;99.90;;;;;;4394955;32;20125;-67
2021/10/07 06:09:38;;;;;;;2.65;0.82;;;8.30;99.90;;;;;;4392079;32;20219;-69
2021/10/07 06:12:04;;;;;;;0.40;0.40;;;8.30;99.90;;;;;;4404340;32;20113;-67
2021/10/07 06:14:30;;;;;;;0.32;0.32;;;8.40;99.90;;;;;;4406047;32;20120;-67
2021/10/07 06:16:55;;;;;;;0.32;0.32;;;8.50;99.90;;;;;;4409069;32;20460;-68
2021/10/07 06:19:23;;;;;;;0.40;0.40;;;8.50;99.90;;;;;;4396569;32;20070;-67
2021/10/07 06:21:52;;;;;;;0.37;0.37;;;8.70;99.90;;;;;;4398091;32;20094;-67
2021/10/07 06:24:18;;;;;;;1.10;0.80;;;8.70;99.90;;;;;;4398099;32;104970;-68
2021/10/07 06:26:45;;;;;;;0.55;0.55;;;8.60;99.90;;;;;;4401189;32;20066;-66
2021/10/07 06:29:11;;;;;;;0.30;0.30;;;8.50;99.90;;;;;;4405003;32;20569;-66
2021/10/07 06:31:38;;;;;;;0.68;0.68;;;8.60;99.90;;;;;;4403159;32;20062;-67
2021/10/07 06:34:05;;;;;;;0.20;0.20;;;8.60;99.90;;;;;;4403373;32;20583;-66
2021/10/07 06:36:30;;;;;;;1.90;1.40;;;8.70;99.90;;;;;;4403148;32;20094;-66
2021/10/07 06:38:56;;;;;;;6.45;0.55;;;8.70;99.90;;;;;;4399920;32;20525;-68
2021/10/07 06:41:22;;;;;;;1.25;0.98;;;8.70;99.90;;;;;;4401204;32;20090;-68
2021/10/07 06:43:48;;;;;;;3.58;1.10;;;8.70;99.90;;;;;;4398053;32;20082;-68
2021/10/07 06:46:13;;;;;;;1.08;0.65;;;8.70;99.90;;;;;;4396550;32;20089;-67
2021/10/07 06:48:40;;;;;;;0.32;0.32;;;8.80;99.90;;;;;;4395506;32;20120;-67
2021/10/07 06:51:09;;;;;;;0.40;0.40;;;9.00;99.90;;;;;;4395531;32;20112;-67
2021/10/07 06:53:36;;;;;;;0.40;0.40;;;9.10;99.90;;;;;;4395948;32;20093;-65
2021/10/07 06:56:01;;;;;;;0.40;0.40;;;9.10;99.90;;;;;;4395077;32;20148;-65
2021/10/07 06:58:29;;;;;;;0.50;0.50;;;9.30;99.90;;;;;;4397167;32;20066;-64
2021/10/07 07:00:55;;;;;;;4.65;1.73;;;9.40;99.90;;;;;;4398120;32;20547;-65
2021/10/07 07:03:20;;;;;;;0.75;0.73;;;9.50;99.90;;;;;;4394919;32;20499;-65
2021/10/07 07:05:46;;;;;;;0.98;0.60;;;9.60;99.90;;;;;;4395740;32;20101;-64
2021/10/07 07:08:14;;;;;;;0.40;0.40;;;9.60;99.90;;;;;;4399472;32;20074;-65
2021/10/07 07:10:39;;;;;;;0.88;0.88;;;9.80;99.90;;;;;;4395746;32;20441;-66
2021/10/07 07:13:06;;;;;;;0.62;0.40;;;9.90;99.90;;;;;;4396617;32;20106;-66
2021/10/07 07:15:32;;;;;;;0.47;0.47;;;9.90;99.90;;;;;;4399747;32;20074;-65
2021/10/07 07:17:58;;;;;;;0.75;0.75;;;10.10;99.90;;;;;;4399373;32;20070;-65
2021/10/07 07:20:24;;;;;;;1.20;0.50;;;10.20;99.90;;;;;;4406318;32;20421;-67
2021/10/07 07:22:49;;;;;;;0.62;0.62;;;10.30;99.90;;;;;;4399069;32;20070;-68
2021/10/07 07:25:15;;;;;;;1.25;1.15;;;10.30;99.90;;;;;;4401302;32;20700;-66
2021/10/07 07:27:41;;;;;;;0.50;0.50;;;10.50;99.90;;;;;;4401618;32;21706;-69
2021/10/07 07:30:12;;;;;;;0.40;0.40;;;10.60;99.90;;;;;;4404261;32;20074;-70
2021/10/07 07:32:37;;;;;;;0.40;0.40;;;10.70;99.90;;;;;;4400688;32;20061;-66
2021/10/07 07:35:25;;;;;;;0.30;0.30;;;10.80;99.90;;;;;;4397171;32;20500;-72
2021/10/07 07:37:50;;;;;;;0.35;0.35;;;10.90;99.90;;;;;;4411376;32;20117;-68
2021/10/07 07:40:18;;;;;;;0.30;0.30;;;11.00;99.90;;;;;;4394109;32;20110;-68
2021/10/07 07:42:44;;;;;;;3.30;0.50;;;11.00;99.90;;;;;;4397477;32;20456;-67
2021/10/07 07:45:09;;;;;;;0.47;0.47;;;11.00;99.90;;;;;;4398334;32;20081;-68
2021/10/07 07:47:41;;;;;;;0.75;0.70;;;11.10;99.90;;;;;;4395798;32;20093;-68
2021/10/07 07:50:30;;;;;;;;;;;;;;;;;;;;;
2021/10/07 07:53:13;;;;;;;;;;;;;;;;;;;;;
2021/10/07 07:55:39;;;;;;;0.52;0.50;;;11.40;99.90;;;;;;4394246;32;20066;-67
2021/10/07 07:58:05;;;;;;;0.40;0.40;;;11.50;99.90;;;;;;4398256;32;20382;-71
2021/10/07 08:00:31;;;;;;;0.50;0.50;;;11.50;99.90;;;;;;4394260;32;20331;-68
2021/10/07 08:02:56;;;;;;;0.52;0.52;;;11.60;99.90;;;;;;4394189;32;20085;-69
2021/10/07 08:05:22;;;;;;;0.30;0.30;;;11.70;99.90;;;;;;4399416;32;20102;-71
2021/10/07 08:07:48;;;;;;;0.30;0.30;;;11.80;99.90;;;;;;4399986;32;20074;-71
2021/10/07 08:10:14;;;;;;;1.27;0.70;;;11.90;99.90;;;;;;4393992;32;20066;-71
2021/10/07 08:12:40;;;;;;;0.43;0.40;;;12.00;99.90;;;;;;4391453;32;20641;-72
2021/10/07 08:15:17;;;;;;;2.42;1.33;;;12.20;99.90;;;;;;4391960;32;20195;-71
2021/10/07 08:18:40;;;;;;;0.77;0.70;;;12.20;99.90;;;;;;4392489;32;20098;-71
2021/10/07 08:21:26;;;;;;;0.40;0.40;;;12.30;99.90;;;;;;4390986;32;20755;-71
2021/10/07 08:24:23;;;;;;;0.50;0.50;;;12.40;99.90;;;;;;4394006;32;20073;-71
2021/10/07 08:27:01;;;;;;;0.57;0.57;;;12.50;99.90;;;;;;4391771;32;20085;-71
2021/10/07 08:29:43;;;;;;;3.47;0.55;;;12.70;99.90;;;;;;4390208;32;20074;-72
2021/10/07 08:32:54;;;;;;;0.40;0.40;;;12.80;99.90;;;;;;4382564;32;20402;-71
2021/10/07 08:35:50;;;;;;;0.40;0.40;;;12.90;99.90;;;;;;4367904;32;20133;-69
2021/10/07 08:38:19;;;;;;;0.40;0.40;;;12.90;99.90;;;;;;4393857;32;20102;-70
2021/10/07 08:40:45;;;;;;;0.20;0.20;;;13.00;99.90;;;;;;4390681;32;20115;-73
2021/10/07 08:43:10;;;;;;;0.57;0.50;;;13.00;99.90;;;;;;4393107;32;20074;-72
2021/10/07 08:45:46;;;;;;;0.40;0.40;;;13.10;99.90;;;;;;4396327;32;20098;-71
2021/10/07 08:48:21;;;;;;;3.28;1.62;;;13.10;99.90;;;;;;4398354;32;20094;-70
2021/10/07 08:50:47;;;;;;;1.90;0.62;;;13.20;99.90;;;;;;4393962;32;20121;-74
2021/10/07 08:53:12;;;;;;;0.65;0.60;;;13.30;99.90;;;;;;4392447;32;20543;-69
2021/10/07 08:55:38;;;;;;;0.50;0.50;;;13.40;99.90;;;;;;4394272;32;20085;-71
2021/10/07 08:58:05;;;;;;;0.20;0.20;;;13.40;99.90;;;;;;4392587;32;20086;-68
2021/10/07 09:00:30;;;;;;;1.45;0.82;;;13.50;99.90;;;;;;4380803;32;20077;-67
2021/10/07 09:03:15;;;;;;;0.55;0.55;;;13.50;99.90;;;;;;4396612;32;20145;-69
2021/10/07 09:05:40;;;;;;;5.25;0.55;;;13.70;99.90;;;;;;4393101;32;20139;-66
2021/10/07 09:08:06;;;;;;;0.43;0.43;;;13.70;99.90;;;;;;4395293;32;20069;-68
2021/10/07 09:10:39;;;;;;;4.07;0.30;;;13.80;99.90;;;;;;4396415;32;20238;-67
2021/10/07 09:13:09;;;;;;;3.50;1.42;;;13.80;99.90;;;;;;4397002;32;20078;-68
2021/10/07 09:15:40;;;;;;;2.00;0.88;;;13.90;99.90;;;;;;4396510;32;20093;-70
2021/10/07 09:18:08;;;;;;;0.40;0.40;;;14.00;99.90;;;;;;4380856;32;20062;-74
2021/10/07 09:20:35;;;;;;;1.20;0.90;;;14.10;99.90;;;;;;4398258;32;20081;-69
2021/10/07 09:23:07;;;;;;;0.40;0.40;;;14.20;99.90;;;;;;4398235;32;20618;-68
2021/10/07 09:26:03;;;;;;;0.55;0.55;;;14.30;99.90;;;;;;4388727;32;21444;-71
2021/10/07 09:28:51;;;;;;;0.85;0.60;;;14.30;99.90;;;;;;4391809;32;20085;-69
2021/10/07 09:31:23;;;;;;;0.45;0.45;;;14.40;99.90;;;;;;4401651;32;20121;-70
2021/10/07 09:33:59;;;;;;;1.08;0.90;;;14.50;99.90;;;;;;4400173;32;20166;-70
2021/10/07 09:36:28;;;;;;;0.85;0.62;;;14.50;99.90;;;;;;4387328;32;20492;-69
2021/10/07 09:38:54;;;;;;;0.90;0.82;;;14.60;99.90;;;;;;4396313;32;20102;-71
2021/10/07 09:41:22;;;;;;;0.40;0.40;;;14.70;99.90;;;;;;4388378;32;20203;-70
2021/10/07 09:44:19;;;;;;;0.43;0.43;;;14.80;99.90;;;;;;4395996;32;20109;-70
2021/10/07 09:46:48;;;;;;;1.10;0.70;;;14.90;99.90;;;;;;4397655;32;20186;-68
2021/10/07 09:49:31;;;;;;;0.55;0.55;;;15.00;99.90;;;;;;4398955;32;20117;-69
2021/10/07 09:51:57;;;;;;;0.88;0.75;;;15.00;99.90;;;;;;4404144;32;20123;-68
2021/10/07 09:54:27;;;;;;;0.30;0.30;;;15.00;99.90;;;;;;4393966;32;20070;-71
2021/10/07 09:56:55;;;;;;;0.62;0.62;;;15.10;99.90;;;;;;4401784;32;20071;-69
2021/10/07 09:59:22;;;;;;;0.40;0.40;;;15.20;99.90;;;;;;4397562;32;20515;-69
2021/10/07 10:01:47;;;;;;;0.40;0.40;;;15.30;99.90;;;;;;4393982;32;20071;-68
2021/10/07 10:04:20;;;;;;;0.88;0.60;;;15.40;99.90;;;;;;4392332;32;20069;-72
2021/10/07 10:06:55;;;;;;;0.80;0.77;;;15.50;99.90;;;;;;4388566;32;20213;-71
2021/10/07 10:09:26;;;;;;;0.30;0.30;;;15.60;99.90;;;;;;4395472;32;20065;-69
2021/10/07 10:11:53;;;;;;;0.55;0.55;;;15.60;99.90;;;;;;4390752;32;20075;-69
2021/10/07 10:14:20;;;;;;;0.57;0.37;;;15.60;99.90;;;;;;4397581;32;20097;-66
2021/10/07 10:16:46;;;;;;;0.47;0.47;;;15.70;99.90;;;;;;4396076;32;20113;-69
2021/10/07 10:19:12;;;;;;;0.45;0.40;;;15.70;99.90;;;;;;4398688;32;20082;-70
2021/10/07 10:22:20;;;;;;;0.37;0.37;;;15.70;99.90;;;;;;4399608;32;20168;-72
2021/10/07 10:25:13;;;;;;;0.60;0.60;;;15.80;99.90;;;;;;4393726;32;20109;-72
2021/10/07 10:27:47;;;;;;;0.80;0.40;;;15.80;99.90;;;;;;4386694;32;20169;-73
2021/10/07 10:30:25;;;;;;;0.30;0.30;;;15.90;99.90;;;;;;4398448;32;20074;-72
2021/10/07 10:33:09;;;;;;;0.55;0.55;;;15.90;99.90;;;;;;4395549;32;20081;-74
2021/10/07 10:36:17;;;;;;;4.72;0.55;;;15.90;99.90;;;;;;4397140;32;20618;-71
2021/10/07 10:39:15;;;;;;;1.08;0.57;;;16.00;99.90;;;;;;4395466;32;20090;-72
2021/10/07 10:42:00;;;;;;;0.30;0.30;;;16.10;99.90;;;;;;4400572;32;20065;-71
2021/10/07 10:45:05;;;;;;;0.50;0.50;;;16.20;99.90;;;;;;4404381;32;20094;-70
2021/10/07 10:47:39;;;;;;;0.30;0.30;;;16.20;99.90;;;;;;4391449;32;20102;-71
2021/10/07 10:50:11;;;;;;;0.47;0.47;;;16.30;99.90;;;;;;4399099;32;20178;-70
2021/10/07 10:52:53;;;;;;;0.73;0.73;;;16.40;99.90;;;;;;4399732;32;20070;-71
2021/10/07 10:55:23;;;;;;;0.40;0.40;;;16.50;99.90;;;;;;4398432;32;20856;-71
2021/10/07 10:58:01;;;;;;;0.88;0.88;;;16.50;99.90;;;;;;4388721;32;20121;-71
2021/10/07 11:00:30;;;;;;;1.35;0.90;;;16.60;99.90;;;;;;4400558;32;20070;-70
2021/10/07 11:03:08;;;;;;;0.62;0.45;;;16.70;99.90;;;;;;4399369;32;20133;-69
2021/10/07 11:05:40;;;;;;;0.32;0.32;;;16.70;99.90;;;;;;4400089;32;20090;-70
2021/10/07 11:08:09;;;;;;;0.40;0.40;;;16.80;99.90;;;;;;4399984;32;20077;-70
2021/10/07 11:10:49;;;;;;;0.30;0.30;;;16.90;99.90;;;;;;4401359;32;20081;-71
2021/10/07 11:13:18;;;;;;;0.33;0.33;;;17.10;99.90;;;;;;4399067;32;20225;-68
2021/10/07 11:15:48;;;;;;;0.30;0.30;;;17.20;99.90;;;;;;4401396;32;20167;-70
2021/10/07 11:18:13;;;;;;;3.10;1.17;;;17.20;99.90;;;;;;4397993;32;20531;-70
2021/10/07 11:20:39;;;;;;;0.50;0.50;;;17.30;99.90;;;;;;4382416;32;20126;-70
2021/10/07 11:23:12;;;;;;;0.50;0.50;;;17.60;99.90;;;;;;4382759;32;20536;-70
2021/10/07 11:25:55;;;;;;;0.32;0.32;;;17.80;99.90;;;;;;4377160;32;20792;-70
2021/10/07 11:28:27;;;;;;;0.40;0.40;;;17.90;99.90;;;;;;4386279;32;20062;-70
2021/10/07 11:31:05;;;;;;;0.47;0.43;;;17.90;99.90;;;;;;4398678;32;20061;-70
2021/10/07 11:33:31;;;;;;;0.40;0.40;;;18.00;99.90;;;;;;4398795;32;20420;-70
2021/10/07 11:36:00;;;;;;;0.50;0.50;;;18.20;99.90;;;;;;4397438;32;20170;-70
2021/10/07 11:38:26;;;;;;;2.20;0.40;;;18.30;99.90;;;;;;4401643;32;20070;-70
2021/10/07 11:40:53;;;;;;;0.70;0.70;;;18.60;99.90;;;;;;4398680;32;20082;-70
2021/10/07 11:43:22;;;;;;;0.30;0.30;;;18.70;99.90;;;;;;4400765;32;20526;-70
2021/10/07 11:45:51;;;;;;;2.08;0.70;;;18.90;99.90;;;;;;4402867;32;20105;-70
2021/10/07 11:48:18;;;;;;;0.40;0.40;;;19.10;99.90;;;;;;4396368;32;20581;-72
2021/10/07 11:50:49;;;;;;;0.30;0.30;;;19.40;99.90;;;;;;4391957;32;20137;-69
2021/10/07 11:53:26;;;;;;;0.40;0.40;;;19.60;99.90;;;;;;4398738;32;20414;-70
2021/10/07 12:00:52;;;;;;;0.70;0.68;;;20.60;99.90;;;;;;4399215;32;20510;-72
2021/10/07 12:03:31;;;;;;;0.30;0.30;;;21.20;99.90;;;;;;4400400;32;20070;-72
2021/10/07 12:06:09;;;;;;;12.70;0.28;;;21.80;99.50;;;;;;4401975;32;20123;-73
2021/10/07 12:08:38;;;;;;;3.30;0.65;;;22.10;98.20;;;;;;4395640;32;20105;-71
2021/10/07 12:11:09;;;;;;;0.30;0.30;;;22.50;97.70;;;;;;4401267;32;20078;-71
2021/10/07 12:14:26;;;;;;;0.20;0.20;;;22.40;98.20;;;;;;4394608;32;20089;-71
2021/10/07 12:17:07;;;;;;;0.10;0.10;;;22.30;98.10;;;;;;4394456;32;20510;-71
2021/10/07 12:19:38;;;;;;;0.20;0.20;;;22.80;96.90;;;;;;4395832;32;20139;-72
2021/10/07 12:22:39;;;;;;;1.25;0.62;;;22.90;96.00;;;;;;4399641;32;20093;-72
2021/10/07 12:25:43;;;;;;;;;;;;;;;;;;;;;
2021/10/07 12:28:40;;;;;;;0.10;0.10;;;23.10;95.70;;;;;;4400696;32;20102;-72
2021/10/07 12:31:23;;;;;;;0.30;0.30;;;23.00;94.60;;;;;;4400789;32;20085;-73
2021/10/07 12:34:03;;;;;;;2.10;1.15;;;23.20;94.40;;;;;;4399382;32;20487;-75
2021/10/07 12:36:43;;;;;;;;;;;23.40;95.30;;;;;;4396129;32;20066;-72
2021/10/07 12:39:42;;;;;;;0.75;0.32;;;23.60;95.30;;;;;;4389353;32;20386;-73
2021/10/07 12:42:28;;;;;;;0.13;0.13;;;23.80;94.40;;;;;;4397323;32;20153;-73
2021/10/07 12:45:15;;;;;;;2.10;0.90;;;23.80;92.60;;;;;;4400057;32;20452;-71
2021/10/07 12:47:59;;;;;;;3.40;0.65;;;23.50;93.40;;;;;;4394200;32;20074;-75
2021/10/07 12:50:49;;;;;;;0.10;0.10;;;22.70;94.80;;;;;;4391255;32;20097;-72
2021/10/07 12:53:43;;;;;;;13.75;0.37;;;22.00;94.20;;;;;;4390632;32;20469;-71
2021/10/07 12:56:26;;;;;;;0.60;0.30;;;21.40;95.10;;;;;;4386885;32;20097;-71
2021/10/07 12:59:14;;;;;;;0.35;0.35;;;21.10;95.40;;;;;;4395951;32;20070;-72
2021/10/07 13:01:44;;;;;;;0.17;0.17;;;20.80;95.10;;;;;;4392313;32;20947;-71
2021/10/07 13:04:18;;;;;;;0.30;0.30;;;20.60;96.50;;;;;;4393799;32;20098;-70
2021/10/07 13:07:18;;;;;;;0.20;0.20;;;20.00;96.70;;;;;;4400328;32;20074;-71
2021/10/07 13:10:15;;;;;;;25.70;1.17;;;19.70;97.80;;;;;;4403384;32;20379;-71
2021/10/07 13:12:41;;;;;;;0.65;0.60;;;19.60;98.80;;;;;;4398968;32;20140;-71
2021/10/07 13:15:14;;;;;;;0.40;0.40;;;19.70;98.40;;;;;;4403293;32;20081;-71
2021/10/07 13:17:40;;;;;;;0.40;0.40;;;19.60;98.10;;;;;;4399338;32;20543;-70
2021/10/07 13:20:08;;;;;;;0.32;0.32;;;19.60;97.80;;;;;;4399809;32;20069;-70
2021/10/07 13:22:36;;;;;;;0.35;0.35;;;19.30;99.10;;;;;;4399888;32;20178;-72
2021/10/07 13:25:04;;;;;;;0.30;0.30;;;19.20;98.50;;;;;;4399906;32;20109;-71
2021/10/07 13:27:31;;;;;;;1.12;0.75;;;19.20;99.00;;;;;;4399827;32;20154;-71
2021/10/07 13:29:56;;;;;;;3.12;0.50;;;19.20;99.70;;;;;;4397711;32;20131;-71
2021/10/07 13:32:22;;;;;;;0.82;0.70;;;19.10;99.90;;;;;;4397863;32;20070;-71
2021/10/07 13:34:48;;;;;;;0.32;0.32;;;19.10;99.90;;;;;;4399071;32;20267;-71
2021/10/07 13:37:15;;;;;;;0.40;0.40;;;19.10;99.80;;;;;;4398056;32;20564;-72
2021/10/07 13:39:41;;;;;;;0.75;0.70;;;19.10;99.90;;;;;;4401814;32;20472;-71
2021/10/07 13:42:28;;;;;;;0.32;0.32;;;19.10;99.90;;;;;;4402788;32;20093;-71
2021/10/07 13:45:18;;;;;;;0.50;0.50;;;19.00;99.90;;;;;;4401945;32;20066;-71
2021/10/07 13:48:01;;;;;;;0.68;0.68;;;19.10;99.40;;;;;;4399607;32;20527;-72
2021/10/07 13:50:26;;;;;;;0.40;0.40;;;19.00;99.90;;;;;;4400205;32;20078;-71